KBUR

Bob Hope Airport

Burbank, California, USA
METAR KBUR 161453Z 00000KT 10SM CLR 10/M03 A3001 RMK AO2 SLP154 T01001028 53001 $
Observed Flight Rules
Nov-16 @ 14:53 UTC (an hour ago) Visual Flight Rules
Visibility Clouds
10 miles
  • Clear skies
Temperatures Readings
Current 10°C / 50°F
Dewpoint -3°C / 27°F
Humidity 40%
Altimeter 30.01" Hg
Pressure 1015.4 hPa
Elevation 217
METAR KBUR 161453Z 00000KT 10SM CLR 10/M03 A3001 RMK AO2 SLP154 T01001028 53001 $
Observed Flight Rules
Nov-16 @ 14:53 UTC
(an hour ago)
VFR
Clouds
  • Clear skies
Temperature Dewpoint
10°C / 50°F -3°C / 27°F
Humidity Altimeter Pressure
40% 30.01" Hg 1015.4 hPa